Adams, Kentucky
Current Conditions -  °F | °C
As of 11:55 AM on Saturday 25 Oct 2014 (Local Time) from KSJS Reporting Station
Scattered Clouds Scattered Clouds  
Wind Chill: 59°   Ceiling: Unl
Heat Index: 59°   Visibility: 10mi
Dew Point: 46°   Wind: 7mph
Humidity: 62%   Direction: 210°SSW
Pressure: 30.06"   Gusts: NA
Location:  38.05°N, 82.71°W
Report Text: KSJS 251555Z AUTO 21006KT 10SM SCT075 15/08 A3006 RMK AO2 T01480076
Loading
Personal Weather Stations






























Interactive Weather Map
Tropical Storm Tracking
New forecast layout! Learn more

10-Day Weather Forecast

Advertisements
Track Severe Weather on mobile